sensor_id;sensor_type;location;lat;lon;timestamp;P1;durP1;ratioP1;P2;durP2;ratioP2
3845;SDS011;1938;50.812;7.738;2023-02-28T00:00:44;4.20;;;1.80;;
3845;SDS011;1938;50.812;7.738;2023-02-28T00:03:09;1.87;;;1.50;;
3845;SDS011;1938;50.812;7.738;2023-02-28T00:05:35;2.33;;;1.17;;
3845;SDS011;1938;50.812;7.738;2023-02-28T00:08:01;7.63;;;1.10;;
3845;SDS011;1938;50.812;7.738;2023-02-28T00:10:28;2.47;;;1.77;;
3845;SDS011;1938;50.812;7.738;2023-02-28T00:12:55;9.97;;;1.10;;
3845;SDS011;1938;50.812;7.738;2023-02-28T00:15:25;2.17;;;1.20;;
3845;SDS011;1938;50.812;7.738;2023-02-28T00:17:51;2.30;;;1.20;;
3845;SDS011;1938;50.812;7.738;2023-02-28T00:20:17;3.80;;;1.13;;
3845;SDS011;1938;50.812;7.738;2023-02-28T00:22:45;6.83;;;1.90;;
3845;SDS011;1938;50.812;7.738;2023-02-28T00:25:14;2.93;;;1.73;;
3845;SDS011;1938;50.812;7.738;2023-02-28T00:27:41;2.10;;;0.97;;
3845;SDS011;1938;50.812;7.738;2023-02-28T00:30:08;2.63;;;1.37;;
3845;SDS011;1938;50.812;7.738;2023-02-28T00:32:40;1.70;;;0.93;;
3845;SDS011;1938;50.812;7.738;2023-02-28T00:35:06;4.77;;;0.87;;
3845;SDS011;1938;50.812;7.738;2023-02-28T00:37:33;6.17;;;1.90;;
3845;SDS011;1938;50.812;7.738;2023-02-28T00:39:58;2.43;;;1.23;;
3845;SDS011;1938;50.812;7.738;2023-02-28T00:42:24;2.00;;;1.30;;
3845;SDS011;1938;50.812;7.738;2023-02-28T00:44:50;5.43;;;1.90;;
3845;SDS011;1938;50.812;7.738;2023-02-28T00:47:15;2.37;;;1.30;;
3845;SDS011;1938;50.812;7.738;2023-02-28T00:49:41;1.83;;;0.97;;
3845;SDS011;1938;50.812;7.738;2023-02-28T00:52:08;2.37;;;1.20;;
3845;SDS011;1938;50.812;7.738;2023-02-28T00:54:34;2.23;;;1.23;;
3845;SDS011;1938;50.812;7.738;2023-02-28T00:56:59;1.37;;;0.83;;
3845;SDS011;1938;50.812;7.738;2023-02-28T00:59:25;2.63;;;1.07;;
3845;SDS011;1938;50.812;7.738;2023-02-28T01:01:51;3.77;;;1.63;;
3845;SDS011;1938;50.812;7.738;2023-02-28T01:04:16;1.60;;;0.90;;
3845;SDS011;1938;50.812;7.738;2023-02-28T01:06:43;1.50;;;0.77;;
3845;SDS011;1938;50.812;7.738;2023-02-28T01:09:09;5.60;;;2.00;;
3845;SDS011;1938;50.812;7.738;2023-02-28T01:11:35;4.60;;;1.00;;
3845;SDS011;1938;50.812;7.738;2023-02-28T01:14:01;2.20;;;0.80;;
3845;SDS011;1938;50.812;7.738;2023-02-28T01:16:27;1.20;;;0.80;;
3845;SDS011;1938;50.812;7.738;2023-02-28T01:18:53;1.30;;;0.87;;
3845;SDS011;1938;50.812;7.738;2023-02-28T01:21:20;2.73;;;1.53;;
3845;SDS011;1938;50.812;7.738;2023-02-28T01:23:47;3.93;;;1.10;;
3845;SDS011;1938;50.812;7.738;2023-02-28T01:26:14;1.30;;;0.80;;
3845;SDS011;1938;50.812;7.738;2023-02-28T01:28:41;2.10;;;1.10;;
3845;SDS011;1938;50.812;7.738;2023-02-28T01:31:07;2.60;;;1.23;;
3845;SDS011;1938;50.812;7.738;2023-02-28T01:33:34;3.13;;;2.03;;
3845;SDS011;1938;50.812;7.738;2023-02-28T01:36:01;8.37;;;1.70;;
3845;SDS011;1938;50.812;7.738;2023-02-28T01:38:29;4.07;;;1.03;;
3845;SDS011;1938;50.812;7.738;2023-02-28T01:40:54;2.67;;;1.10;;
3845;SDS011;1938;50.812;7.738;2023-02-28T01:43:27;1.60;;;1.00;;
3845;SDS011;1938;50.812;7.738;2023-02-28T01:45:55;2.10;;;1.33;;
3845;SDS011;1938;50.812;7.738;2023-02-28T01:48:24;3.00;;;1.40;;
3845;SDS011;1938;50.812;7.738;2023-02-28T01:50:52;9.13;;;1.40;;
3845;SDS011;1938;50.812;7.738;2023-02-28T01:53:21;3.03;;;1.20;;
3845;SDS011;1938;50.812;7.738;2023-02-28T01:55:51;1.20;;;0.70;;
3845;SDS011;1938;50.812;7.738;2023-02-28T01:58:18;55.57;;;5.47;;
3845;SDS011;1938;50.812;7.738;2023-02-28T02:00:44;2.50;;;1.33;;
3845;SDS011;1938;50.812;7.738;2023-02-28T02:03:12;3.70;;;1.33;;
3845;SDS011;1938;50.812;7.738;2023-02-28T02:05:44;1.60;;;0.90;;
3845;SDS011;1938;50.812;7.738;2023-02-28T02:08:15;1.77;;;1.07;;
3845;SDS011;1938;50.812;7.738;2023-02-28T02:10:54;1.37;;;0.97;;
3845;SDS011;1938;50.812;7.738;2023-02-28T02:13:34;2.50;;;1.40;;
3845;SDS011;1938;50.812;7.738;2023-02-28T02:16:18;2.40;;;1.07;;
3845;SDS011;1938;50.812;7.738;2023-02-28T02:22:05;1.77;;;1.20;;
3845;SDS011;1938;50.812;7.738;2023-02-28T02:25:04;2.40;;;1.00;;
3845;SDS011;1938;50.812;7.738;2023-02-28T02:27:36;1.50;;;0.80;;
3845;SDS011;1938;50.812;7.738;2023-02-28T02:33:20;4.00;;;1.43;;
3845;SDS011;1938;50.812;7.738;2023-02-28T02:44:02;2.37;;;1.10;;
3845;SDS011;1938;50.812;7.738;2023-02-28T02:46:37;3.20;;;1.03;;
3845;SDS011;1938;50.812;7.738;2023-02-28T02:49:08;1.60;;;1.00;;
3845;SDS011;1938;50.812;7.738;2023-02-28T02:51:40;3.27;;;1.43;;
3845;SDS011;1938;50.812;7.738;2023-02-28T02:54:14;2.83;;;1.47;;
3845;SDS011;1938;50.812;7.738;2023-02-28T02:56:45;2.10;;;1.23;;
3845;SDS011;1938;50.812;7.738;2023-02-28T02:59:13;2.43;;;1.30;;
3845;SDS011;1938;50.812;7.738;2023-02-28T03:01:46;2.00;;;1.40;;
3845;SDS011;1938;50.812;7.738;2023-02-28T03:04:17;2.10;;;1.47;;
3845;SDS011;1938;50.812;7.738;2023-02-28T03:06:45;3.93;;;1.90;;
3845;SDS011;1938;50.812;7.738;2023-02-28T03:09:11;2.23;;;1.70;;
3845;SDS011;1938;50.812;7.738;2023-02-28T03:11:37;1.93;;;1.30;;
3845;SDS011;1938;50.812;7.738;2023-02-28T03:14:08;2.40;;;1.47;;
3845;SDS011;1938;50.812;7.738;2023-02-28T03:31:10;4.43;;;1.90;;
3845;SDS011;1938;50.812;7.738;2023-02-28T03:34:29;2.40;;;0.90;;
3845;SDS011;1938;50.812;7.738;2023-02-28T03:37:04;2.37;;;1.37;;
3845;SDS011;1938;50.812;7.738;2023-02-28T03:39:36;1.77;;;1.17;;
3845;SDS011;1938;50.812;7.738;2023-02-28T03:42:09;2.10;;;1.10;;
3845;SDS011;1938;50.812;7.738;2023-02-28T03:44:41;2.67;;;1.50;;
3845;SDS011;1938;50.812;7.738;2023-02-28T03:47:11;1.27;;;0.90;;
3845;SDS011;1938;50.812;7.738;2023-02-28T03:49:46;2.27;;;1.60;;
3845;SDS011;1938;50.812;7.738;2023-02-28T03:52:17;2.17;;;1.27;;
3845;SDS011;1938;50.812;7.738;2023-02-28T03:54:48;2.43;;;1.43;;
3845;SDS011;1938;50.812;7.738;2023-02-28T03:59:59;3.93;;;1.40;;
3845;SDS011;1938;50.812;7.738;2023-02-28T04:02:32;3.40;;;1.43;;
3845;SDS011;1938;50.812;7.738;2023-02-28T04:04:59;2.23;;;1.37;;
3845;SDS011;1938;50.812;7.738;2023-02-28T04:07:28;3.60;;;1.50;;
3845;SDS011;1938;50.812;7.738;2023-02-28T04:10:02;2.60;;;1.73;;
3845;SDS011;1938;50.812;7.738;2023-02-28T04:12:28;3.03;;;1.50;;
3845;SDS011;1938;50.812;7.738;2023-02-28T04:14:54;1.63;;;1.20;;
3845;SDS011;1938;50.812;7.738;2023-02-28T04:17:20;2.50;;;1.47;;
3845;SDS011;1938;50.812;7.738;2023-02-28T04:19:47;3.20;;;1.67;;
3845;SDS011;1938;50.812;7.738;2023-02-28T04:22:12;4.00;;;1.47;;
3845;SDS011;1938;50.812;7.738;2023-02-28T04:24:38;3.10;;;1.63;;
3845;SDS011;1938;50.812;7.738;2023-02-28T04:27:06;2.70;;;1.70;;
3845;SDS011;1938;50.812;7.738;2023-02-28T04:29:33;2.23;;;1.40;;
3845;SDS011;1938;50.812;7.738;2023-02-28T04:32:00;2.77;;;1.37;;
3845;SDS011;1938;50.812;7.738;2023-02-28T04:34:27;2.50;;;1.20;;
3845;SDS011;1938;50.812;7.738;2023-02-28T04:36:54;2.77;;;1.70;;
3845;SDS011;1938;50.812;7.738;2023-02-28T04:39:21;1.77;;;1.13;;
3845;SDS011;1938;50.812;7.738;2023-02-28T04:41:47;1.50;;;1.10;;
3845;SDS011;1938;50.812;7.738;2023-02-28T04:44:14;2.87;;;1.80;;
3845;SDS011;1938;50.812;7.738;2023-02-28T04:46:40;2.93;;;1.33;;
3845;SDS011;1938;50.812;7.738;2023-02-28T04:49:06;4.03;;;1.67;;
3845;SDS011;1938;50.812;7.738;2023-02-28T04:51:34;3.30;;;1.20;;
3845;SDS011;1938;50.812;7.738;2023-02-28T04:54:00;1.83;;;1.50;;
3845;SDS011;1938;50.812;7.738;2023-02-28T04:56:25;2.27;;;1.63;;
3845;SDS011;1938;50.812;7.738;2023-02-28T04:58:51;2.30;;;1.20;;
3845;SDS011;1938;50.812;7.738;2023-02-28T05:01:22;3.03;;;1.80;;
3845;SDS011;1938;50.812;7.738;2023-02-28T05:03:51;2.97;;;1.40;;
3845;SDS011;1938;50.812;7.738;2023-02-28T05:06:18;3.93;;;1.90;;
3845;SDS011;1938;50.812;7.738;2023-02-28T05:08:45;3.83;;;2.07;;
3845;SDS011;1938;50.812;7.738;2023-02-28T05:11:18;4.47;;;2.73;;
3845;SDS011;1938;50.812;7.738;2023-02-28T05:13:46;2.40;;;1.47;;
3845;SDS011;1938;50.812;7.738;2023-02-28T05:16:13;4.10;;;1.80;;
3845;SDS011;1938;50.812;7.738;2023-02-28T05:18:39;2.20;;;1.43;;
3845;SDS011;1938;50.812;7.738;2023-02-28T05:21:12;3.53;;;1.50;;
3845;SDS011;1938;50.812;7.738;2023-02-28T05:23:54;2.83;;;1.20;;
3845;SDS011;1938;50.812;7.738;2023-02-28T05:26:20;2.30;;;1.40;;
3845;SDS011;1938;50.812;7.738;2023-02-28T05:28:46;3.20;;;1.60;;
3845;SDS011;1938;50.812;7.738;2023-02-28T05:31:12;3.53;;;2.10;;
3845;SDS011;1938;50.812;7.738;2023-02-28T05:33:38;3.30;;;2.20;;
3845;SDS011;1938;50.812;7.738;2023-02-28T05:36:05;3.83;;;2.60;;
3845;SDS011;1938;50.812;7.738;2023-02-28T05:38:32;7.00;;;1.90;;
3845;SDS011;1938;50.812;7.738;2023-02-28T05:40:57;2.20;;;1.33;;
3845;SDS011;1938;50.812;7.738;2023-02-28T05:43:23;4.10;;;2.00;;
3845;SDS011;1938;50.812;7.738;2023-02-28T05:45:49;3.00;;;2.00;;
3845;SDS011;1938;50.812;7.738;2023-02-28T05:48:14;2.73;;;1.47;;
3845;SDS011;1938;50.812;7.738;2023-02-28T05:50:40;3.37;;;1.73;;
3845;SDS011;1938;50.812;7.738;2023-02-28T05:53:07;3.17;;;2.00;;
3845;SDS011;1938;50.812;7.738;2023-02-28T05:55:33;3.00;;;1.80;;
3845;SDS011;1938;50.812;7.738;2023-02-28T05:58:00;3.27;;;2.00;;
3845;SDS011;1938;50.812;7.738;2023-02-28T06:00:26;2.00;;;1.30;;
3845;SDS011;1938;50.812;7.738;2023-02-28T06:02:52;8.07;;;3.03;;
3845;SDS011;1938;50.812;7.738;2023-02-28T06:05:21;4.17;;;2.27;;
3845;SDS011;1938;50.812;7.738;2023-02-28T06:07:47;6.90;;;1.63;;
3845;SDS011;1938;50.812;7.738;2023-02-28T06:10:13;5.80;;;3.00;;
3845;SDS011;1938;50.812;7.738;2023-02-28T06:12:39;3.70;;;2.20;;
3845;SDS011;1938;50.812;7.738;2023-02-28T06:15:06;5.40;;;2.20;;
3845;SDS011;1938;50.812;7.738;2023-02-28T06:17:36;3.90;;;2.50;;
3845;SDS011;1938;50.812;7.738;2023-02-28T06:20:02;3.20;;;2.23;;
3845;SDS011;1938;50.812;7.738;2023-02-28T06:22:28;2.97;;;2.00;;
3845;SDS011;1938;50.812;7.738;2023-02-28T06:24:53;3.43;;;2.10;;
3845;SDS011;1938;50.812;7.738;2023-02-28T06:27:19;2.10;;;1.53;;
3845;SDS011;1938;50.812;7.738;2023-02-28T06:29:46;3.30;;;1.53;;
3845;SDS011;1938;50.812;7.738;2023-02-28T06:32:12;2.43;;;1.53;;
3845;SDS011;1938;50.812;7.738;2023-02-28T06:34:37;1.97;;;1.37;;
3845;SDS011;1938;50.812;7.738;2023-02-28T06:37:03;3.60;;;2.20;;
3845;SDS011;1938;50.812;7.738;2023-02-28T06:39:30;12.30;;;3.10;;
3845;SDS011;1938;50.812;7.738;2023-02-28T06:41:56;2.00;;;1.37;;
3845;SDS011;1938;50.812;7.738;2023-02-28T06:44:23;3.40;;;1.70;;
3845;SDS011;1938;50.812;7.738;2023-02-28T06:46:49;2.83;;;1.90;;
3845;SDS011;1938;50.812;7.738;2023-02-28T06:49:15;2.37;;;1.50;;
3845;SDS011;1938;50.812;7.738;2023-02-28T06:51:41;7.97;;;2.87;;
3845;SDS011;1938;50.812;7.738;2023-02-28T06:54:11;5.37;;;3.13;;
3845;SDS011;1938;50.812;7.738;2023-02-28T06:56:37;3.30;;;2.30;;
3845;SDS011;1938;50.812;7.738;2023-02-28T06:59:04;3.97;;;1.90;;
3845;SDS011;1938;50.812;7.738;2023-02-28T07:01:30;5.10;;;2.43;;
3845;SDS011;1938;50.812;7.738;2023-02-28T07:03:57;7.57;;;1.67;;
3845;SDS011;1938;50.812;7.738;2023-02-28T07:06:23;3.57;;;1.50;;
3845;SDS011;1938;50.812;7.738;2023-02-28T07:08:50;5.33;;;1.60;;
3845;SDS011;1938;50.812;7.738;2023-02-28T07:11:18;3.13;;;1.60;;
3845;SDS011;1938;50.812;7.738;2023-02-28T07:13:44;3.03;;;1.70;;
3845;SDS011;1938;50.812;7.738;2023-02-28T07:16:12;3.43;;;1.60;;
3845;SDS011;1938;50.812;7.738;2023-02-28T07:18:38;2.80;;;1.23;;
3845;SDS011;1938;50.812;7.738;2023-02-28T07:21:05;2.60;;;2.00;;
3845;SDS011;1938;50.812;7.738;2023-02-28T07:23:32;3.70;;;1.40;;
3845;SDS011;1938;50.812;7.738;2023-02-28T07:25:59;3.97;;;1.87;;
3845;SDS011;1938;50.812;7.738;2023-02-28T07:28:24;2.63;;;1.50;;
3845;SDS011;1938;50.812;7.738;2023-02-28T07:30:50;3.00;;;1.63;;
3845;SDS011;1938;50.812;7.738;2023-02-28T07:33:16;3.13;;;1.40;;
3845;SDS011;1938;50.812;7.738;2023-02-28T07:35:41;2.80;;;1.80;;
3845;SDS011;1938;50.812;7.738;2023-02-28T07:38:08;3.70;;;1.30;;
3845;SDS011;1938;50.812;7.738;2023-02-28T07:40:34;2.70;;;1.60;;
3845;SDS011;1938;50.812;7.738;2023-02-28T07:43:00;2.67;;;1.47;;
3845;SDS011;1938;50.812;7.738;2023-02-28T07:45:27;2.80;;;1.37;;
3845;SDS011;1938;50.812;7.738;2023-02-28T07:47:54;3.93;;;1.40;;
3845;SDS011;1938;50.812;7.738;2023-02-28T07:50:20;2.73;;;1.80;;
3845;SDS011;1938;50.812;7.738;2023-02-28T07:52:46;2.83;;;1.50;;
3845;SDS011;1938;50.812;7.738;2023-02-28T07:55:11;3.70;;;1.77;;
3845;SDS011;1938;50.812;7.738;2023-02-28T07:57:38;15.03;;;2.07;;
3845;SDS011;1938;50.812;7.738;2023-02-28T08:00:05;3.60;;;2.00;;
3845;SDS011;1938;50.812;7.738;2023-02-28T08:02:34;1.90;;;1.30;;
3845;SDS011;1938;50.812;7.738;2023-02-28T08:05:00;1.97;;;1.17;;
3845;SDS011;1938;50.812;7.738;2023-02-28T08:07:26;2.20;;;1.47;;
3845;SDS011;1938;50.812;7.738;2023-02-28T08:09:51;3.70;;;1.77;;
3845;SDS011;1938;50.812;7.738;2023-02-28T08:12:17;4.00;;;1.87;;
3845;SDS011;1938;50.812;7.738;2023-02-28T08:14:42;2.53;;;1.40;;
3845;SDS011;1938;50.812;7.738;2023-02-28T08:17:08;2.40;;;1.10;;
3845;SDS011;1938;50.812;7.738;2023-02-28T08:19:34;3.23;;;1.40;;
3845;SDS011;1938;50.812;7.738;2023-02-28T08:22:00;2.57;;;1.27;;
3845;SDS011;1938;50.812;7.738;2023-02-28T08:24:26;2.17;;;1.10;;
3845;SDS011;1938;50.812;7.738;2023-02-28T08:26:51;2.50;;;1.67;;
3845;SDS011;1938;50.812;7.738;2023-02-28T08:29:17;3.80;;;1.77;;
3845;SDS011;1938;50.812;7.738;2023-02-28T08:31:42;2.07;;;1.30;;
3845;SDS011;1938;50.812;7.738;2023-02-28T08:34:08;2.57;;;1.40;;
3845;SDS011;1938;50.812;7.738;2023-02-28T08:36:36;3.73;;;3.23;;
3845;SDS011;1938;50.812;7.738;2023-02-28T08:39:02;3.27;;;1.57;;
3845;SDS011;1938;50.812;7.738;2023-02-28T08:41:28;4.10;;;2.00;;
3845;SDS011;1938;50.812;7.738;2023-02-28T08:43:54;2.43;;;1.60;;
3845;SDS011;1938;50.812;7.738;2023-02-28T08:46:20;3.07;;;1.60;;
3845;SDS011;1938;50.812;7.738;2023-02-28T08:48:46;7.63;;;1.70;;
3845;SDS011;1938;50.812;7.738;2023-02-28T08:51:13;2.47;;;1.73;;
3845;SDS011;1938;50.812;7.738;2023-02-28T08:53:41;3.37;;;2.27;;
3845;SDS011;1938;50.812;7.738;2023-02-28T08:56:10;3.63;;;1.63;;
3845;SDS011;1938;50.812;7.738;2023-02-28T08:58:38;3.40;;;1.43;;
3845;SDS011;1938;50.812;7.738;2023-02-28T09:01:11;4.77;;;2.50;;
3845;SDS011;1938;50.812;7.738;2023-02-28T09:03:38;2.60;;;1.70;;
3845;SDS011;1938;50.812;7.738;2023-02-28T09:06:04;3.33;;;1.63;;
3845;SDS011;1938;50.812;7.738;2023-02-28T09:08:30;2.20;;;1.23;;
3845;SDS011;1938;50.812;7.738;2023-02-28T09:10:56;2.50;;;1.23;;
3845;SDS011;1938;50.812;7.738;2023-02-28T09:13:23;1.43;;;1.23;;
3845;SDS011;1938;50.812;7.738;2023-02-28T09:15:49;2.33;;;1.77;;
3845;SDS011;1938;50.812;7.738;2023-02-28T09:18:15;1.43;;;0.97;;
3845;SDS011;1938;50.812;7.738;2023-02-28T09:20:41;1.30;;;0.93;;
3845;SDS011;1938;50.812;7.738;2023-02-28T09:23:08;2.10;;;1.40;;
3845;SDS011;1938;50.812;7.738;2023-02-28T09:25:34;2.40;;;1.60;;
3845;SDS011;1938;50.812;7.738;2023-02-28T09:28:00;5.43;;;2.27;;
3845;SDS011;1938;50.812;7.738;2023-02-28T09:30:27;1.53;;;1.27;;
3845;SDS011;1938;50.812;7.738;2023-02-28T09:32:54;2.37;;;1.43;;
3845;SDS011;1938;50.812;7.738;2023-02-28T09:35:20;3.30;;;1.20;;
3845;SDS011;1938;50.812;7.738;2023-02-28T09:37:46;1.33;;;0.93;;
3845;SDS011;1938;50.812;7.738;2023-02-28T09:40:13;2.23;;;1.20;;
3845;SDS011;1938;50.812;7.738;2023-02-28T09:42:42;2.43;;;1.00;;
3845;SDS011;1938;50.812;7.738;2023-02-28T09:45:13;2.30;;;1.63;;
3845;SDS011;1938;50.812;7.738;2023-02-28T09:47:49;3.27;;;2.00;;
3845;SDS011;1938;50.812;7.738;2023-02-28T09:52:50;2.00;;;1.27;;
3845;SDS011;1938;50.812;7.738;2023-02-28T09:56:01;1.20;;;1.00;;
3845;SDS011;1938;50.812;7.738;2023-02-28T09:58:20;1.83;;;1.20;;
3845;SDS011;1938;50.812;7.738;2023-02-28T10:06:20;1.00;;;0.80;;
3845;SDS011;1938;50.812;7.738;2023-02-28T10:11:35;2.47;;;1.30;;
3845;SDS011;1938;50.812;7.738;2023-02-28T10:14:04;1.70;;;1.37;;
3845;SDS011;1938;50.812;7.738;2023-02-28T10:16:46;2.03;;;1.33;;
3845;SDS011;1938;50.812;7.738;2023-02-28T10:22:01;2.20;;;1.67;;
3845;SDS011;1938;50.812;7.738;2023-02-28T10:24:33;4.80;;;1.67;;
3845;SDS011;1938;50.812;7.738;2023-02-28T10:29:44;2.67;;;1.80;;
3845;SDS011;1938;50.812;7.738;2023-02-28T10:32:22;2.73;;;1.50;;
3845;SDS011;1938;50.812;7.738;2023-02-28T10:37:37;3.43;;;1.30;;
3845;SDS011;1938;50.812;7.738;2023-02-28T10:40:03;2.00;;;1.50;;
3845;SDS011;1938;50.812;7.738;2023-02-28T10:42:30;3.77;;;1.70;;
3845;SDS011;1938;50.812;7.738;2023-02-28T10:45:16;2.57;;;1.53;;
3845;SDS011;1938;50.812;7.738;2023-02-28T10:50:52;2.93;;;1.57;;
3845;SDS011;1938;50.812;7.738;2023-02-28T11:03:56;3.23;;;2.07;;
3845;SDS011;1938;50.812;7.738;2023-02-28T11:06:28;3.70;;;1.90;;
3845;SDS011;1938;50.812;7.738;2023-02-28T11:08:56;3.40;;;1.83;;
3845;SDS011;1938;50.812;7.738;2023-02-28T11:11:31;3.20;;;1.70;;
3845;SDS011;1938;50.812;7.738;2023-02-28T11:14:17;3.70;;;2.30;;
3845;SDS011;1938;50.812;7.738;2023-02-28T11:16:44;2.60;;;2.20;;
3845;SDS011;1938;50.812;7.738;2023-02-28T11:19:16;3.80;;;2.10;;
3845;SDS011;1938;50.812;7.738;2023-02-28T11:22:05;2.53;;;1.83;;
3845;SDS011;1938;50.812;7.738;2023-02-28T11:27:00;3.80;;;2.60;;
3845;SDS011;1938;50.812;7.738;2023-02-28T11:34:31;1.87;;;1.67;;
3845;SDS011;1938;50.812;7.738;2023-02-28T11:36:58;1.40;;;0.90;;
3845;SDS011;1938;50.812;7.738;2023-02-28T11:39:25;2.30;;;1.70;;
3845;SDS011;1938;50.812;7.738;2023-02-28T11:41:59;1.93;;;1.33;;
3845;SDS011;1938;50.812;7.738;2023-02-28T11:52:53;3.10;;;1.20;;
3845;SDS011;1938;50.812;7.738;2023-02-28T11:55:42;4.30;;;2.10;;
3845;SDS011;1938;50.812;7.738;2023-02-28T11:58:33;4.03;;;1.97;;
3845;SDS011;1938;50.812;7.738;2023-02-28T12:01:12;2.17;;;1.80;;
3845;SDS011;1938;50.812;7.738;2023-02-28T12:03:54;2.60;;;1.90;;
3845;SDS011;1938;50.812;7.738;2023-02-28T12:06:33;2.00;;;1.47;;
3845;SDS011;1938;50.812;7.738;2023-02-28T12:25:37;2.80;;;2.20;;
3845;SDS011;1938;50.812;7.738;2023-02-28T12:28:06;3.30;;;2.07;;
3845;SDS011;1938;50.812;7.738;2023-02-28T12:30:35;2.10;;;1.60;;
3845;SDS011;1938;50.812;7.738;2023-02-28T12:35:49;3.20;;;1.87;;
3845;SDS011;1938;50.812;7.738;2023-02-28T12:41:12;3.20;;;1.57;;
3845;SDS011;1938;50.812;7.738;2023-02-28T12:43:40;4.53;;;2.50;;
3845;SDS011;1938;50.812;7.738;2023-02-28T12:46:14;3.60;;;2.10;;
3845;SDS011;1938;50.812;7.738;2023-02-28T12:48:48;1.83;;;1.30;;
3845;SDS011;1938;50.812;7.738;2023-02-28T12:51:20;4.33;;;1.70;;
3845;SDS011;1938;50.812;7.738;2023-02-28T12:56:43;3.47;;;2.20;;
3845;SDS011;1938;50.812;7.738;2023-02-28T12:59:38;3.50;;;1.90;;
3845;SDS011;1938;50.812;7.738;2023-02-28T13:07:31;4.30;;;2.30;;
3845;SDS011;1938;50.812;7.738;2023-02-28T13:10:19;4.20;;;1.80;;
3845;SDS011;1938;50.812;7.738;2023-02-28T13:12:52;2.97;;;1.83;;
3845;SDS011;1938;50.812;7.738;2023-02-28T13:17:53;2.83;;;2.13;;
3845;SDS011;1938;50.812;7.738;2023-02-28T13:22:52;2.80;;;2.33;;
3845;SDS011;1938;50.812;7.738;2023-02-28T13:27:54;6.20;;;1.87;;
3845;SDS011;1938;50.812;7.738;2023-02-28T13:36:00;2.63;;;2.10;;
3845;SDS011;1938;50.812;7.738;2023-02-28T13:38:38;5.70;;;3.40;;
3845;SDS011;1938;50.812;7.738;2023-02-28T13:44:02;5.43;;;2.70;;
3845;SDS011;1938;50.812;7.738;2023-02-28T13:46:29;3.40;;;1.80;;
3845;SDS011;1938;50.812;7.738;2023-02-28T13:48:55;3.63;;;2.43;;
3845;SDS011;1938;50.812;7.738;2023-02-28T13:56:54;2.67;;;1.83;;
3845;SDS011;1938;50.812;7.738;2023-02-28T13:59:55;5.97;;;3.57;;
3845;SDS011;1938;50.812;7.738;2023-02-28T14:09:01;2.03;;;1.83;;
3845;SDS011;1938;50.812;7.738;2023-02-28T14:11:39;3.47;;;1.87;;
3845;SDS011;1938;50.812;7.738;2023-02-28T14:14:07;2.80;;;1.77;;
3845;SDS011;1938;50.812;7.738;2023-02-28T14:16:41;4.83;;;3.07;;
3845;SDS011;1938;50.812;7.738;2023-02-28T14:19:22;3.77;;;2.00;;
3845;SDS011;1938;50.812;7.738;2023-02-28T14:30:26;2.33;;;1.93;;
3845;SDS011;1938;50.812;7.738;2023-02-28T14:41:12;6.77;;;3.30;;
3845;SDS011;1938;50.812;7.738;2023-02-28T14:43:52;4.53;;;2.40;;
3845;SDS011;1938;50.812;7.738;2023-02-28T14:46:21;1.20;;;1.00;;
3845;SDS011;1938;50.812;7.738;2023-02-28T14:48:49;3.53;;;2.20;;
3845;SDS011;1938;50.812;7.738;2023-02-28T14:51:19;5.67;;;2.60;;
3845;SDS011;1938;50.812;7.738;2023-02-28T14:53:50;3.20;;;1.97;;
3845;SDS011;1938;50.812;7.738;2023-02-28T14:56:26;5.70;;;2.33;;
3845;SDS011;1938;50.812;7.738;2023-02-28T14:58:57;5.07;;;2.70;;
3845;SDS011;1938;50.812;7.738;2023-02-28T15:01:24;4.37;;;1.77;;
3845;SDS011;1938;50.812;7.738;2023-02-28T15:03:59;3.93;;;2.30;;
3845;SDS011;1938;50.812;7.738;2023-02-28T15:06:27;6.20;;;3.03;;
3845;SDS011;1938;50.812;7.738;2023-02-28T15:09:06;2.00;;;1.43;;
3845;SDS011;1938;50.812;7.738;2023-02-28T15:11:33;4.47;;;2.17;;
3845;SDS011;1938;50.812;7.738;2023-02-28T15:14:00;4.57;;;2.60;;
3845;SDS011;1938;50.812;7.738;2023-02-28T15:16:30;1.90;;;1.63;;
3845;SDS011;1938;50.812;7.738;2023-02-28T15:18:59;3.73;;;1.90;;
3845;SDS011;1938;50.812;7.738;2023-02-28T15:21:32;3.27;;;2.20;;
3845;SDS011;1938;50.812;7.738;2023-02-28T15:24:03;4.50;;;2.00;;
3845;SDS011;1938;50.812;7.738;2023-02-28T15:26:37;3.80;;;2.00;;
3845;SDS011;1938;50.812;7.738;2023-02-28T15:29:06;4.83;;;2.40;;
3845;SDS011;1938;50.812;7.738;2023-02-28T15:31:45;4.70;;;2.67;;
3845;SDS011;1938;50.812;7.738;2023-02-28T15:34:18;7.37;;;2.43;;
3845;SDS011;1938;50.812;7.738;2023-02-28T15:36:45;8.60;;;2.47;;
3845;SDS011;1938;50.812;7.738;2023-02-28T15:39:21;5.77;;;3.00;;
3845;SDS011;1938;50.812;7.738;2023-02-28T15:41:49;4.70;;;2.30;;
3845;SDS011;1938;50.812;7.738;2023-02-28T15:47:34;4.53;;;2.57;;
3845;SDS011;1938;50.812;7.738;2023-02-28T15:52:40;3.43;;;2.37;;
3845;SDS011;1938;50.812;7.738;2023-02-28T15:55:12;2.20;;;1.67;;
3845;SDS011;1938;50.812;7.738;2023-02-28T15:57:47;5.00;;;2.80;;
3845;SDS011;1938;50.812;7.738;2023-02-28T16:00:18;2.60;;;1.97;;
3845;SDS011;1938;50.812;7.738;2023-02-28T16:02:46;4.13;;;2.63;;
3845;SDS011;1938;50.812;7.738;2023-02-28T16:05:22;5.47;;;2.70;;
3845;SDS011;1938;50.812;7.738;2023-02-28T16:07:53;4.50;;;2.50;;
3845;SDS011;1938;50.812;7.738;2023-02-28T16:10:39;7.73;;;2.27;;
3845;SDS011;1938;50.812;7.738;2023-02-28T16:13:04;1.80;;;1.53;;
3845;SDS011;1938;50.812;7.738;2023-02-28T16:15:31;1.40;;;1.07;;
3845;SDS011;1938;50.812;7.738;2023-02-28T16:18:07;4.03;;;2.47;;
3845;SDS011;1938;50.812;7.738;2023-02-28T16:20:37;6.33;;;2.17;;
3845;SDS011;1938;50.812;7.738;2023-02-28T16:23:03;4.97;;;2.97;;
3845;SDS011;1938;50.812;7.738;2023-02-28T16:25:39;5.30;;;3.00;;
3845;SDS011;1938;50.812;7.738;2023-02-28T16:28:12;5.93;;;3.23;;
3845;SDS011;1938;50.812;7.738;2023-02-28T16:30:44;3.90;;;2.93;;
3845;SDS011;1938;50.812;7.738;2023-02-28T16:33:09;3.90;;;3.00;;
3845;SDS011;1938;50.812;7.738;2023-02-28T16:35:35;5.00;;;3.77;;
3845;SDS011;1938;50.812;7.738;2023-02-28T16:38:01;5.40;;;3.50;;
3845;SDS011;1938;50.812;7.738;2023-02-28T16:40:26;4.63;;;3.20;;
3845;SDS011;1938;50.812;7.738;2023-02-28T16:42:54;7.20;;;3.60;;
3845;SDS011;1938;50.812;7.738;2023-02-28T16:45:24;6.97;;;4.50;;
3845;SDS011;1938;50.812;7.738;2023-02-28T16:47:52;8.87;;;4.67;;
3845;SDS011;1938;50.812;7.738;2023-02-28T16:50:19;6.70;;;3.43;;
3845;SDS011;1938;50.812;7.738;2023-02-28T16:52:46;5.60;;;3.40;;
3845;SDS011;1938;50.812;7.738;2023-02-28T16:55:13;6.67;;;3.23;;
3845;SDS011;1938;50.812;7.738;2023-02-28T16:57:39;5.83;;;3.40;;
3845;SDS011;1938;50.812;7.738;2023-02-28T17:00:06;6.13;;;3.07;;
3845;SDS011;1938;50.812;7.738;2023-02-28T17:02:33;6.67;;;3.17;;
3845;SDS011;1938;50.812;7.738;2023-02-28T17:04:59;5.10;;;2.70;;
3845;SDS011;1938;50.812;7.738;2023-02-28T17:07:25;6.97;;;3.10;;
3845;SDS011;1938;50.812;7.738;2023-02-28T17:09:50;6.33;;;3.50;;
3845;SDS011;1938;50.812;7.738;2023-02-28T17:12:16;4.10;;;2.67;;
3845;SDS011;1938;50.812;7.738;2023-02-28T17:14:41;4.43;;;3.30;;
3845;SDS011;1938;50.812;7.738;2023-02-28T17:17:09;7.17;;;3.20;;
3845;SDS011;1938;50.812;7.738;2023-02-28T17:19:41;6.70;;;3.70;;
3845;SDS011;1938;50.812;7.738;2023-02-28T17:22:08;6.60;;;4.10;;
3845;SDS011;1938;50.812;7.738;2023-02-28T17:24:35;10.83;;;4.20;;
3845;SDS011;1938;50.812;7.738;2023-02-28T17:27:01;7.50;;;2.80;;
3845;SDS011;1938;50.812;7.738;2023-02-28T17:29:26;6.10;;;3.10;;
3845;SDS011;1938;50.812;7.738;2023-02-28T17:31:52;8.70;;;3.73;;
3845;SDS011;1938;50.812;7.738;2023-02-28T17:34:18;4.60;;;3.10;;
3845;SDS011;1938;50.812;7.738;2023-02-28T17:36:50;5.90;;;3.60;;
3845;SDS011;1938;50.812;7.738;2023-02-28T17:39:17;6.73;;;3.17;;
3845;SDS011;1938;50.812;7.738;2023-02-28T17:41:51;4.30;;;3.20;;
3845;SDS011;1938;50.812;7.738;2023-02-28T17:44:17;4.60;;;3.03;;
3845;SDS011;1938;50.812;7.738;2023-02-28T17:46:43;7.17;;;3.37;;
3845;SDS011;1938;50.812;7.738;2023-02-28T17:49:10;5.10;;;2.87;;
3845;SDS011;1938;50.812;7.738;2023-02-28T17:51:36;11.77;;;3.20;;
3845;SDS011;1938;50.812;7.738;2023-02-28T17:54:02;4.13;;;2.70;;
3845;SDS011;1938;50.812;7.738;2023-02-28T17:56:27;6.63;;;2.20;;
3845;SDS011;1938;50.812;7.738;2023-02-28T17:58:54;4.47;;;3.03;;
3845;SDS011;1938;50.812;7.738;2023-02-28T18:01:21;5.07;;;2.40;;
3845;SDS011;1938;50.812;7.738;2023-02-28T18:03:48;4.63;;;3.00;;
3845;SDS011;1938;50.812;7.738;2023-02-28T18:06:19;9.87;;;3.23;;
3845;SDS011;1938;50.812;7.738;2023-02-28T18:08:54;4.23;;;3.10;;